Time;durP1;ratioP1;P1;durP2;ratioP2;P2;SDS_P1;SDS_P2;PMS_P1;PMS_P2;Temp;Humidity;BMP_temperature;BMP_pressure;BME280_temperature;BME280_humidity;BME280_pressure;Samples;Min_cycle;Max_cycle;Signal;HPM_P1;HPM_P2
2022/12/08 00:01:33;;;;;;;5.60;2.20;;;0.20;74.10;;;;;;4174877;28;20532;-85
2022/12/08 00:03:53;;;;;;;5.80;2.20;;;0.20;74.20;;;;;;4172738;28;20119;-84
2022/12/08 00:11:40;;;;;;;3.65;1.77;;;0.20;74.50;;;;;;4184103;28;20090;-86
2022/12/08 00:13:59;;;;;;;7.53;2.03;;;0.20;74.60;;;;;;4178147;28;20059;-84
2022/12/08 00:16:18;;;;;;;6.15;1.92;;;0.10;74.70;;;;;;4171930;28;20102;-84
2022/12/08 00:18:38;;;;;;;3.85;2.00;;;0.10;75.00;;;;;;4178163;28;20035;-84
2022/12/08 00:20:58;;;;;;;5.00;1.30;;;0.10;75.20;;;;;;4173640;28;20128;-85
2022/12/08 00:23:17;;;;;;;4.43;1.98;;;0.20;75.10;;;;;;4179996;28;20119;-85
2022/12/08 00:25:36;;;;;;;4.57;2.00;;;0.00;75.30;;;;;;4175262;28;20051;-85
2022/12/08 00:27:55;;;;;;;4.05;1.75;;;0.00;75.60;;;;;;4178110;28;20481;-86
2022/12/08 00:30:14;;;;;;;3.85;1.50;;;0.00;75.60;;;;;;4174954;28;20104;-84
2022/12/08 00:32:33;;;;;;;5.50;1.85;;;-0.10;75.70;;;;;;4181467;28;20071;-84
2022/12/08 00:34:52;;;;;;;5.68;1.48;;;0.00;75.60;;;;;;4178028;28;20106;-84
2022/12/08 00:37:12;;;;;;;3.45;1.27;;;-0.10;76.00;;;;;;4178014;28;20098;-85
2022/12/08 00:39:31;;;;;;;3.90;1.30;;;-0.10;76.20;;;;;;4178959;28;20040;-84
2022/12/08 00:44:28;;;;;;;5.13;1.10;;;-0.10;76.90;;;;;;4190759;28;20038;-86
2022/12/08 00:46:48;;;;;;;3.50;1.42;;;-0.10;77.40;;;;;;4177557;28;20103;-85
2022/12/08 00:49:07;;;;;;;5.07;1.70;;;-0.10;77.30;;;;;;4184706;28;20043;-85
2022/12/08 00:51:26;;;;;;;8.23;1.70;;;-0.10;77.50;;;;;;4180267;28;20063;-86
2022/12/08 00:53:45;;;;;;;3.15;0.93;;;-0.10;77.40;;;;;;4181051;28;20067;-84
2022/12/08 00:56:04;;;;;;;5.28;1.13;;;-0.10;78.20;;;;;;4180034;28;20094;-85
2022/12/08 00:58:23;;;;;;;4.47;1.10;;;-0.20;78.40;;;;;;4176028;28;20539;-85
2022/12/08 01:00:43;;;;;;;4.60;1.17;;;-0.10;78.60;;;;;;4177797;28;20036;-85
2022/12/08 01:03:02;;;;;;;4.88;0.90;;;-0.10;78.40;;;;;;4179544;28;20551;-85
2022/12/08 01:05:21;;;;;;;6.22;0.90;;;-0.10;78.60;;;;;;4185207;28;20173;-85
2022/12/08 01:07:40;;;;;;;2.45;0.77;;;-0.10;79.10;;;;;;4175336;28;20504;-85
2022/12/08 01:09:59;;;;;;;8.57;1.20;;;-0.10;78.90;;;;;;4182388;28;20087;-84
2022/12/08 01:12:18;;;;;;;6.13;0.88;;;-0.10;78.80;;;;;;4181768;28;20080;-83
2022/12/08 01:14:37;;;;;;;7.80;0.80;;;-0.10;78.90;;;;;;4184206;28;20047;-85
2022/12/08 01:16:57;;;;;;;2.00;0.60;;;0.00;79.10;;;;;;4174786;28;20051;-84
2022/12/08 01:19:16;;;;;;;3.55;0.68;;;-0.10;79.20;;;;;;4178724;28;20110;-83
2022/12/08 01:21:35;;;;;;;2.60;0.55;;;0.00;79.10;;;;;;4177935;28;20949;-84
2022/12/08 01:23:56;;;;;;;0.90;0.30;;;-0.10;79.00;;;;;;4183060;28;20161;-85
2022/12/08 01:26:17;;;;;;;0.63;0.20;;;0.00;79.00;;;;;;4181067;28;20048;-84
2022/12/08 01:28:37;;;;;;;6.63;0.50;;;0.00;79.20;;;;;;4176925;28;20047;-85
2022/12/08 01:30:58;;;;;;;3.67;0.30;;;-0.10;79.50;;;;;;4177858;28;20922;-85
2022/12/08 01:33:17;;;;;;;3.65;0.82;;;-0.10;79.40;;;;;;4179674;28;20098;-84
2022/12/08 01:35:36;;;;;;;1.20;0.20;;;-0.10;79.70;;;;;;4182621;28;20042;-83
2022/12/08 01:37:55;;;;;;;1.80;0.40;;;-0.10;79.50;;;;;;4176225;28;20040;-84
2022/12/08 01:40:15;;;;;;;2.17;0.30;;;0.00;79.60;;;;;;4178092;28;20153;-85
2022/12/08 01:42:37;;;;;;;3.30;0.30;;;0.00;79.80;;;;;;4196497;28;20055;-83
2022/12/08 01:45:20;;;;;;;1.10;0.30;;;-0.10;79.80;;;;;;4194828;28;20042;-86
2022/12/08 01:47:43;;;;;;;2.33;0.35;;;-0.10;80.00;;;;;;4180706;28;20067;-86
2022/12/08 01:50:04;;;;;;;0.98;0.20;;;-0.20;80.10;;;;;;4181081;28;20046;-86
2022/12/08 01:52:48;;;;;;;0.32;0.20;;;-0.20;80.20;;;;;;4181884;28;20040;-86
2022/12/08 01:54:55;;;;;;;2.10;0.20;;;-0.20;80.40;;;;;;4179198;28;20033;-85
2022/12/08 01:57:05;;;;;;;0.77;0.22;;;-0.20;80.10;;;;;;4185057;28;20028;-84
2022/12/08 01:59:06;;;;;;;1.83;0.20;;;0.00;80.00;;;;;;4168431;28;20025;-85
2022/12/08 02:01:07;;;;;;;1.55;0.20;;;-0.10;79.80;;;;;;4171855;28;20029;-84
2022/12/08 02:03:17;;;;;;;0.77;0.10;;;-0.10;80.00;;;;;;4179883;28;20500;-86
2022/12/08 02:05:21;;;;;;;2.80;0.30;;;-0.10;80.00;;;;;;4165191;28;22112;-85
2022/12/08 02:07:23;;;;;;;0.60;0.20;;;-0.10;80.10;;;;;;4180126;28;20443;-86
2022/12/08 02:09:23;;;;;;;8.90;0.47;;;-0.10;80.00;;;;;;4181979;28;20023;-86
2022/12/08 02:11:24;;;;;;;0.73;0.20;;;0.00;80.00;;;;;;4164433;28;20111;-87
2022/12/08 02:13:25;;;;;;;1.20;0.20;;;-0.10;79.70;;;;;;4181665;28;20032;-84
2022/12/08 02:15:47;;;;;;;1.27;0.10;;;0.00;79.70;;;;;;4177653;28;20033;-86
2022/12/08 02:18:08;;;;;;;0.20;0.10;;;0.00;79.70;;;;;;4170675;28;20021;-85
2022/12/08 02:20:27;;;;;;;1.27;0.22;;;0.10;79.60;;;;;;4180773;28;20033;-85
2022/12/08 02:22:46;;;;;;;3.35;0.13;;;0.10;79.60;;;;;;4180073;28;20029;-83
2022/12/08 02:25:13;;;;;;;3.90;0.43;;;0.10;79.40;;;;;;4178415;28;20458;-85
2022/12/08 02:27:48;;;;;;;4.55;0.50;;;0.20;79.40;;;;;;4179141;28;20063;-86
2022/12/08 02:30:11;;;;;;;3.97;0.47;;;0.20;79.30;;;;;;4192592;28;20720;-86
2022/12/08 02:32:27;;;;;;;3.20;0.60;;;0.20;79.20;;;;;;4176199;28;20401;-85
2022/12/08 02:34:44;;;;;;;0.77;0.22;;;0.20;79.10;;;;;;4173624;28;20067;-85
2022/12/08 02:37:30;;;;;;;1.35;0.30;;;0.20;79.10;;;;;;4181073;28;20052;-85
2022/12/08 02:39:44;;;;;;;6.78;0.28;;;0.20;79.00;;;;;;4178735;28;20037;-86
2022/12/08 02:41:55;;;;;;;0.00;0.00;;;0.20;79.00;;;;;;4179302;28;20028;-83
2022/12/08 02:44:11;;;;;;;3.70;0.77;;;0.20;78.90;;;;;;4167571;28;20025;-86
2022/12/08 02:46:23;;;;;;;3.72;0.68;;;0.30;79.10;;;;;;4164171;28;20025;-84
2022/12/08 02:48:27;;;;;;;5.00;0.77;;;0.30;79.10;;;;;;4178168;28;20033;-85
2022/12/08 02:50:28;;;;;;;3.42;0.70;;;0.30;78.90;;;;;;4178136;28;20408;-84
2022/12/08 02:52:28;;;;;;;1.38;0.40;;;0.30;78.90;;;;;;4172304;28;20035;-84
2022/12/08 02:54:29;;;;;;;4.95;0.63;;;0.30;78.90;;;;;;4177947;28;20036;-85
2022/12/08 02:57:05;;;;;;;1.13;0.32;;;0.30;78.90;;;;;;4178062;28;20025;-85
2022/12/08 02:59:08;;;;;;;0.90;0.30;;;0.30;78.90;;;;;;4162627;28;20060;-86
2022/12/08 03:01:30;;;;;;;2.20;0.35;;;0.30;79.00;;;;;;4174976;28;20386;-85
2022/12/08 03:03:37;;;;;;;3.08;0.30;;;0.40;79.00;;;;;;4158661;28;20034;-85
2022/12/08 03:06:08;;;;;;;2.75;0.30;;;0.40;79.00;;;;;;4165696;28;20032;-84
2022/12/08 03:08:20;;;;;;;0.65;0.20;;;0.40;78.90;;;;;;4176457;28;20028;-85
2022/12/08 03:10:29;;;;;;;2.45;0.50;;;0.40;78.70;;;;;;4179394;28;20515;-84
2022/12/08 03:12:38;;;;;;;4.22;0.52;;;0.40;78.60;;;;;;4171323;28;20080;-85
2022/12/08 03:14:46;;;;;;;1.33;0.22;;;0.40;78.60;;;;;;4166844;28;20033;-84
2022/12/08 03:16:51;;;;;;;1.88;0.45;;;0.40;78.60;;;;;;4185603;28;20042;-86
2022/12/08 03:19:23;;;;;;;2.17;0.28;;;0.40;78.60;;;;;;4167270;28;20490;-85
2022/12/08 03:21:24;;;;;;;4.03;0.60;;;0.40;78.50;;;;;;4089236;28;20067;-84
2022/12/08 03:23:25;;;;;;;1.55;0.30;;;0.40;78.50;;;;;;4108136;28;20578;-84
2022/12/08 03:25:29;;;;;;;1.02;0.30;;;0.40;78.40;;;;;;4103786;28;20035;-85
2022/12/08 03:27:30;;;;;;;0.90;0.40;;;0.40;78.40;;;;;;4102022;28;20522;-83
2022/12/08 03:29:32;;;;;;;1.35;0.40;;;0.40;78.50;;;;;;4099373;28;20654;-85
2022/12/08 03:31:39;;;;;;;2.00;0.32;;;0.40;78.50;;;;;;4083500;28;20063;-85
2022/12/08 03:33:44;;;;;;;2.58;0.40;;;0.40;78.50;;;;;;4083827;28;20050;-84
2022/12/08 03:35:46;;;;;;;1.27;0.40;;;0.50;78.60;;;;;;4108549;28;20495;-84
2022/12/08 03:37:46;;;;;;;7.00;0.63;;;0.50;78.60;;;;;;4116187;28;20018;-84
2022/12/08 03:39:47;;;;;;;0.95;0.50;;;0.50;78.50;;;;;;4112823;28;20125;-84
2022/12/08 03:41:48;;;;;;;3.30;0.50;;;0.50;78.50;;;;;;4085528;28;20031;-84
2022/12/08 03:43:59;;;;;;;1.95;0.80;;;0.50;78.50;;;;;;4114571;28;20030;-84
2022/12/08 03:46:00;;;;;;;3.30;0.68;;;0.50;78.50;;;;;;4115447;28;20045;-84
2022/12/08 03:48:01;;;;;;;2.38;0.40;;;0.60;78.50;;;;;;4115454;28;20041;-82
2022/12/08 03:50:02;;;;;;;1.08;0.50;;;0.50;79.30;;;;;;4098164;28;20130;-84
2022/12/08 03:52:03;;;;;;;6.07;0.60;;;0.50;78.50;;;;;;4113075;28;20260;-85
2022/12/08 03:54:03;;;;;;;3.55;0.75;;;0.50;78.40;;;;;;4084519;28;20051;-85
2022/12/08 03:56:12;;;;;;;5.43;0.50;;;0.50;78.50;;;;;;4110578;28;20041;-84
2022/12/08 03:58:13;;;;;;;1.38;0.50;;;0.50;78.50;;;;;;4148932;28;20033;-83
2022/12/08 04:00:15;;;;;;;1.35;0.50;;;0.50;78.50;;;;;;4175913;28;20036;-84
2022/12/08 04:02:16;;;;;;;1.63;0.60;;;0.60;78.50;;;;;;4172283;28;20059;-83
2022/12/08 04:04:17;;;;;;;2.08;0.57;;;0.60;78.40;;;;;;4174408;28;20024;-84
2022/12/08 04:06:19;;;;;;;1.95;0.70;;;0.60;78.50;;;;;;4174069;28;20053;-84
2022/12/08 04:08:19;;;;;;;2.08;0.50;;;0.50;78.30;;;;;;4175252;28;20032;-84
2022/12/08 04:10:20;;;;;;;1.10;0.50;;;0.50;78.20;;;;;;4184016;28;20412;-83
2022/12/08 04:12:21;;;;;;;1.08;0.43;;;0.50;78.50;;;;;;4170273;28;20206;-83
2022/12/08 04:14:21;;;;;;;3.08;0.38;;;0.50;78.50;;;;;;4156953;28;20578;-83
2022/12/08 04:16:24;;;;;;;2.75;0.70;;;0.50;78.40;;;;;;4164155;28;20370;-84
2022/12/08 04:18:25;;;;;;;1.77;0.55;;;0.40;78.50;;;;;;4172445;28;20033;-85
2022/12/08 04:20:26;;;;;;;4.35;0.52;;;0.50;78.60;;;;;;4183583;28;20056;-85
2022/12/08 04:22:26;;;;;;;2.95;0.57;;;0.40;78.60;;;;;;4173965;28;20074;-85
2022/12/08 04:24:27;;;;;;;2.15;0.50;;;0.40;78.70;;;;;;4176917;28;20647;-85
2022/12/08 04:26:27;;;;;;;3.78;0.50;;;0.40;78.70;;;;;;4180528;28;20031;-85
2022/12/08 04:28:28;;;;;;;2.30;0.40;;;0.40;78.70;;;;;;4173513;28;20040;-86
2022/12/08 04:30:29;;;;;;;4.50;0.63;;;0.40;78.80;;;;;;4179060;28;20067;-84
2022/12/08 04:32:30;;;;;;;8.35;0.50;;;0.40;79.10;;;;;;4176246;28;20036;-85
2022/12/08 04:34:31;;;;;;;5.75;0.50;;;0.40;79.10;;;;;;4182931;28;20698;-85
2022/12/08 04:36:31;;;;;;;1.73;0.50;;;0.40;79.10;;;;;;4175266;28;20033;-84
2022/12/08 04:38:32;;;;;;;2.63;0.50;;;0.40;79.30;;;;;;4174132;28;20136;-84
2022/12/08 04:40:33;;;;;;;4.43;0.60;;;0.40;79.20;;;;;;4176387;28;20055;-83
2022/12/08 04:42:34;;;;;;;2.75;0.30;;;0.40;79.10;;;;;;4173907;28;20485;-85
2022/12/08 04:44:34;;;;;;;0.20;0.10;;;0.40;79.10;;;;;;4176088;28;20132;-86
2022/12/08 04:46:35;;;;;;;0.85;0.38;;;0.50;79.20;;;;;;4161827;28;21430;-85
2022/12/08 04:48:37;;;;;;;1.60;0.30;;;0.50;79.20;;;;;;4174613;28;20029;-86
2022/12/08 04:50:41;;;;;;;0.98;0.30;;;0.50;79.20;;;;;;4198409;28;20104;-84
2022/12/08 04:52:42;;;;;;;2.88;0.50;;;0.50;79.20;;;;;;4190356;28;20041;-84
2022/12/08 04:54:42;;;;;;;1.85;0.38;;;0.60;79.30;;;;;;4185680;28;20063;-85
2022/12/08 04:56:43;;;;;;;2.03;0.70;;;0.60;79.20;;;;;;4180116;28;20238;-85
2022/12/08 04:58:44;;;;;;;2.60;0.47;;;0.60;79.20;;;;;;4178776;28;20020;-85
2022/12/08 05:00:46;;;;;;;0.82;0.30;;;0.60;79.10;;;;;;4178275;28;20071;-84
2022/12/08 05:02:46;;;;;;;2.78;0.50;;;0.60;79.10;;;;;;4183138;28;20089;-86
2022/12/08 05:04:47;;;;;;;1.65;0.45;;;0.70;79.10;;;;;;4180415;28;20103;-86
2022/12/08 05:06:48;;;;;;;5.43;0.70;;;0.70;79.10;;;;;;4164273;28;20037;-85
2022/12/08 05:08:49;;;;;;;0.63;0.43;;;0.70;78.90;;;;;;4179405;28;20025;-84
2022/12/08 05:10:49;;;;;;;2.25;0.70;;;0.70;78.90;;;;;;4174907;28;20021;-83
2022/12/08 05:12:50;;;;;;;2.40;0.50;;;0.70;78.90;;;;;;4189727;28;20439;-83
2022/12/08 05:14:51;;;;;;;3.28;0.70;;;0.70;78.80;;;;;;4174568;28;20291;-83
2022/12/08 05:16:52;;;;;;;3.08;0.45;;;0.70;78.80;;;;;;4173822;28;20033;-84
2022/12/08 05:18:52;;;;;;;2.83;0.70;;;0.70;78.70;;;;;;4180978;28;20056;-85
2022/12/08 05:20:53;;;;;;;2.45;0.60;;;0.70;78.70;;;;;;4170906;28;20520;-83
2022/12/08 05:22:53;;;;;;;1.88;0.40;;;0.70;78.70;;;;;;4171247;28;20049;-83
2022/12/08 05:24:54;;;;;;;0.65;0.38;;;0.70;78.70;;;;;;4177538;28;20020;-83
2022/12/08 05:26:55;;;;;;;3.13;0.50;;;0.70;78.70;;;;;;4177233;28;20024;-83
2022/12/08 05:28:55;;;;;;;1.40;0.40;;;0.70;78.60;;;;;;4178383;28;20040;-83
2022/12/08 05:30:56;;;;;;;3.28;0.57;;;0.70;78.60;;;;;;4174446;28;20025;-83
2022/12/08 05:32:57;;;;;;;1.55;0.65;;;0.70;78.50;;;;;;4183267;28;20033;-83
2022/12/08 05:34:57;;;;;;;2.20;0.40;;;0.70;78.50;;;;;;4166367;28;20040;-83
2022/12/08 05:36:58;;;;;;;3.78;0.40;;;0.70;78.50;;;;;;4172687;28;20037;-83
2022/12/08 05:38:59;;;;;;;2.55;0.40;;;0.70;78.50;;;;;;4174527;28;20060;-83
2022/12/08 05:41:00;;;;;;;1.23;0.43;;;0.60;78.30;;;;;;4155310;28;20029;-83
2022/12/08 05:43:01;;;;;;;1.77;0.40;;;0.60;78.30;;;;;;4172767;28;20104;-83
2022/12/08 05:45:05;;;;;;;2.70;0.52;;;0.60;78.30;;;;;;4175788;28;20052;-83
2022/12/08 05:47:06;;;;;;;2.22;0.47;;;0.50;78.20;;;;;;4178698;28;20104;-84
2022/12/08 05:49:07;;;;;;;3.92;0.57;;;0.60;78.30;;;;;;4189401;28;20029;-84
2022/12/08 05:51:19;;;;;;;2.85;0.45;;;0.60;78.30;;;;;;4181963;28;20017;-84
2022/12/08 05:53:20;;;;;;;1.92;0.50;;;0.50;78.40;;;;;;4185186;28;20025;-84
2022/12/08 05:55:20;;;;;;;1.85;0.40;;;0.50;78.40;;;;;;4182602;28;20031;-83
2022/12/08 05:57:21;;;;;;;1.55;0.30;;;0.50;78.40;;;;;;4184091;28;20664;-84
2022/12/08 05:59:21;;;;;;;1.50;0.30;;;0.60;78.50;;;;;;4183459;28;20040;-83
2022/12/08 06:01:28;;;;;;;1.85;0.40;;;0.50;78.50;;;;;;4165255;28;20025;-84
2022/12/08 06:03:30;;;;;;;1.13;0.22;;;0.60;78.70;;;;;;4177602;28;20516;-84
2022/12/08 06:05:34;;;;;;;1.73;0.28;;;0.60;78.70;;;;;;4181739;28;20020;-83
2022/12/08 06:07:35;;;;;;;2.45;0.28;;;0.60;78.70;;;;;;4182015;28;20032;-83
2022/12/08 06:09:55;;;;;;;0.90;0.28;;;0.60;78.70;;;;;;4180650;28;20056;-84
2022/12/08 06:12:16;;;;;;;1.55;0.32;;;0.60;78.80;;;;;;4178236;28;20029;-83
2022/12/08 06:14:38;;;;;;;2.30;0.55;;;0.60;78.80;;;;;;4177915;28;20031;-83
2022/12/08 06:16:39;;;;;;;1.13;0.30;;;0.60;78.80;;;;;;4182077;28;20729;-83
2022/12/08 06:18:39;;;;;;;1.40;0.40;;;0.60;78.80;;;;;;4181567;28;20436;-83
2022/12/08 06:21:08;;;;;;;1.10;0.43;;;0.70;78.90;;;;;;4179630;28;20040;-83
2022/12/08 06:23:15;;;;;;;1.20;0.30;;;0.70;78.90;;;;;;4177459;28;20035;-83
2022/12/08 06:25:36;;;;;;;1.73;0.22;;;0.70;79.60;;;;;;4196580;28;20114;-83
2022/12/08 06:27:54;;;;;;;1.02;0.30;;;0.80;79.00;;;;;;4186865;28;20516;-83
2022/12/08 06:30:15;;;;;;;2.55;0.35;;;0.70;78.80;;;;;;4179583;28;20730;-84
2022/12/08 06:32:36;;;;;;;1.58;0.43;;;0.70;78.80;;;;;;4174565;28;20057;-83
2022/12/08 06:34:56;;;;;;;1.52;0.30;;;0.70;78.90;;;;;;4175316;28;20071;-83
2022/12/08 06:37:18;;;;;;;2.92;0.55;;;0.70;78.90;;;;;;4185513;28;20048;-84
2022/12/08 06:39:38;;;;;;;1.17;0.28;;;0.70;78.90;;;;;;4182496;28;20040;-83
2022/12/08 06:44:39;;;;;;;0.82;0.30;;;0.80;79.00;;;;;;4177007;28;20161;-84
2022/12/08 06:47:00;;;;;;;0.93;0.50;;;0.80;79.00;;;;;;4180761;28;20124;-84
2022/12/08 06:49:21;;;;;;;3.13;0.50;;;0.80;78.90;;;;;;4182548;28;20021;-84
2022/12/08 06:51:42;;;;;;;2.78;0.40;;;0.80;78.90;;;;;;4178840;28;20683;-83
2022/12/08 06:54:02;;;;;;;0.98;0.45;;;0.80;78.80;;;;;;4183999;28;20032;-84
2022/12/08 06:56:26;;;;;;;0.45;0.20;;;0.90;78.80;;;;;;4182851;28;20106;-84
2022/12/08 06:58:48;;;;;;;2.15;0.70;;;0.90;78.90;;;;;;4173550;28;20029;-84
2022/12/08 07:01:12;;;;;;;1.30;0.35;;;0.90;78.90;;;;;;4163518;28;20078;-83
2022/12/08 07:03:32;;;;;;;1.43;0.50;;;0.90;78.90;;;;;;4170953;28;20622;-84
2022/12/08 07:05:56;;;;;;;1.65;0.43;;;0.90;78.80;;;;;;4167855;28;20294;-83
2022/12/08 07:08:17;;;;;;;1.30;0.50;;;0.90;78.80;;;;;;4179045;28;20134;-84
2022/12/08 07:10:38;;;;;;;3.63;0.70;;;0.90;78.80;;;;;;4174022;28;20040;-83
2022/12/08 07:12:59;;;;;;;22.45;7.90;;;0.90;78.80;;;;;;4174481;28;20029;-84
2022/12/08 07:15:20;;;;;;;5.40;1.60;;;0.90;78.90;;;;;;4176372;28;20042;-84
2022/12/08 07:17:41;;;;;;;1.73;0.70;;;0.90;79.00;;;;;;4176660;28;20032;-83
2022/12/08 07:20:02;;;;;;;2.05;0.73;;;0.80;78.90;;;;;;4171021;28;20062;-84
2022/12/08 07:22:23;;;;;;;2.25;0.50;;;0.80;78.90;;;;;;4171165;28;20127;-84
2022/12/08 07:24:44;;;;;;;4.38;1.50;;;0.80;78.90;;;;;;4176073;28;20052;-83
2022/12/08 07:27:04;;;;;;;3.03;1.00;;;0.80;79.00;;;;;;4178791;28;20083;-83
2022/12/08 07:29:25;;;;;;;4.13;2.13;;;0.70;79.00;;;;;;4176096;28;20521;-84
2022/12/08 07:31:47;;;;;;;8.80;2.88;;;0.70;79.30;;;;;;4173819;28;20052;-84
2022/12/08 07:34:11;;;;;;;4.40;0.40;;;0.70;79.50;;;;;;4183155;28;20025;-83
2022/12/08 07:36:32;;;;;;;1.88;1.00;;;0.60;79.60;;;;;;4175730;28;20044;-83
2022/12/08 07:38:53;;;;;;;4.13;0.47;;;0.60;79.60;;;;;;4178415;28;20405;-83
2022/12/08 07:41:16;;;;;;;1.17;0.50;;;0.60;79.80;;;;;;4175609;28;20055;-84
2022/12/08 07:43:38;;;;;;;2.25;0.45;;;0.60;79.80;;;;;;4175764;28;20037;-84
2022/12/08 07:45:58;;;;;;;3.20;0.70;;;0.60;79.60;;;;;;4176180;28;20040;-84
2022/12/08 07:48:19;;;;;;;2.47;0.60;;;0.60;79.50;;;;;;4172492;28;20029;-84
2022/12/08 07:50:40;;;;;;;1.27;0.60;;;0.70;79.50;;;;;;4174774;28;20060;-83
2022/12/08 07:53:00;;;;;;;1.30;0.50;;;0.70;79.50;;;;;;4176701;28;20134;-83
2022/12/08 07:55:19;;;;;;;1.60;0.60;;;0.70;79.60;;;;;;4173249;28;20175;-84
2022/12/08 07:57:38;;;;;;;2.38;0.47;;;0.70;79.50;;;;;;4174645;28;20082;-83
2022/12/08 08:00:11;;;;;;;1.60;0.60;;;0.70;79.50;;;;;;4190918;28;20037;-84
2022/12/08 08:02:30;;;;;;;1.60;0.77;;;0.70;79.50;;;;;;4177837;28;20443;-83
2022/12/08 08:04:50;;;;;;;3.08;0.60;;;0.80;79.50;;;;;;4181696;28;20582;-83
2022/12/08 08:07:10;;;;;;;3.10;1.00;;;0.70;79.40;;;;;;4177174;28;20115;-83
2022/12/08 08:09:29;;;;;;;2.08;1.08;;;0.70;79.20;;;;;;4175270;28;20111;-83
2022/12/08 08:11:48;;;;;;;7.03;2.97;;;0.80;79.20;;;;;;4171344;28;20036;-84
2022/12/08 08:14:08;;;;;;;7.47;3.50;;;0.80;79.10;;;;;;4178651;28;20086;-84
2022/12/08 08:16:27;;;;;;;7.28;2.97;;;0.70;79.00;;;;;;4175108;28;20684;-83
2022/12/08 08:18:47;;;;;;;6.03;2.92;;;0.70;78.90;;;;;;4174751;28;20036;-84
2022/12/08 08:21:07;;;;;;;6.03;2.08;;;0.70;78.80;;;;;;4170652;28;20078;-83
2022/12/08 08:23:26;;;;;;;3.35;1.70;;;0.70;78.80;;;;;;4172595;28;20083;-85
2022/12/08 08:25:46;;;;;;;5.00;1.73;;;0.70;78.70;;;;;;4173675;28;20079;-83
2022/12/08 08:28:05;;;;;;;4.95;1.90;;;0.70;78.60;;;;;;4173187;28;20038;-84
2022/12/08 08:30:24;;;;;;;4.22;1.98;;;0.60;78.60;;;;;;4178204;28;20556;-83
2022/12/08 08:32:43;;;;;;;2.63;1.38;;;0.60;78.60;;;;;;4173951;28;20540;-84
2022/12/08 08:35:03;;;;;;;8.18;1.30;;;0.60;78.60;;;;;;4174427;28;20035;-84
2022/12/08 08:37:22;;;;;;;6.35;1.35;;;0.60;78.70;;;;;;4175113;28;20048;-84
2022/12/08 08:39:42;;;;;;;5.50;1.40;;;0.60;78.70;;;;;;4176452;28;20036;-85
2022/12/08 08:42:01;;;;;;;3.38;1.50;;;0.60;78.70;;;;;;4176510;28;20090;-84
2022/12/08 08:44:20;;;;;;;7.55;1.73;;;0.70;78.90;;;;;;4178031;28;20032;-84
2022/12/08 08:46:40;;;;;;;6.47;2.40;;;0.60;78.90;;;;;;4179302;28;20109;-84
2022/12/08 08:49:00;;;;;;;12.43;4.75;;;0.70;79.00;;;;;;4175524;28;20048;-84
2022/12/08 08:51:19;;;;;;;7.20;3.30;;;0.70;79.00;;;;;;4178855;28;20619;-83
2022/12/08 08:53:38;;;;;;;4.55;2.30;;;0.80;79.10;;;;;;4176024;28;20035;-84
2022/12/08 08:55:58;;;;;;;4.80;1.85;;;0.80;79.10;;;;;;4183552;28;20159;-84
2022/12/08 08:58:17;;;;;;;2.65;1.60;;;0.80;79.10;;;;;;4182745;28;20727;-85
2022/12/08 09:00:36;;;;;;;6.82;1.80;;;0.80;79.10;;;;;;4190884;28;20031;-83
2022/12/08 09:02:55;;;;;;;3.80;1.50;;;0.90;79.00;;;;;;4186912;28;20499;-83
2022/12/08 09:05:14;;;;;;;2.65;1.52;;;0.90;78.90;;;;;;4182837;28;20485;-84
2022/12/08 09:07:33;;;;;;;3.65;1.52;;;1.00;79.00;;;;;;4185917;28;20044;-83
2022/12/08 09:09:53;;;;;;;3.28;1.25;;;0.90;78.90;;;;;;4187389;28;20052;-83
2022/12/08 09:12:12;;;;;;;3.50;1.55;;;1.00;79.10;;;;;;4182164;28;20102;-84
2022/12/08 09:14:31;;;;;;;3.45;1.27;;;1.00;79.10;;;;;;4179183;28;20032;-83
2022/12/08 09:16:51;;;;;;;3.25;1.20;;;1.00;79.10;;;;;;4182629;28;20047;-84
2022/12/08 09:19:10;;;;;;;3.10;1.15;;;1.10;79.10;;;;;;4179531;28;20110;-84
2022/12/08 09:21:29;;;;;;;4.53;1.25;;;1.10;79.20;;;;;;4170480;28;21050;-84
2022/12/08 09:23:58;;;;;;;1.55;0.90;;;1.10;79.20;;;;;;4174945;28;20504;-84
2022/12/08 09:26:21;;;;;;;1.70;1.00;;;1.20;79.40;;;;;;4181731;28;20039;-84
2022/12/08 09:28:45;;;;;;;2.08;0.93;;;1.20;79.50;;;;;;4184797;28;20112;-84
2022/12/08 09:31:04;;;;;;;5.57;1.10;;;1.30;79.60;;;;;;4176157;28;20060;-84
2022/12/08 09:33:24;;;;;;;1.13;0.80;;;1.30;79.70;;;;;;4180294;28;20098;-83
2022/12/08 09:35:43;;;;;;;2.00;0.90;;;1.30;79.70;;;;;;4194768;28;20809;-84
2022/12/08 09:38:02;;;;;;;1.38;0.93;;;1.40;79.70;;;;;;4183702;28;20047;-83
2022/12/08 09:40:23;;;;;;;1.42;0.88;;;1.40;79.60;;;;;;4178866;28;20545;-83
2022/12/08 09:43:03;;;;;;;2.70;0.90;;;1.50;79.60;;;;;;4180118;28;20074;-84
2022/12/08 09:45:26;;;;;;;2.50;0.60;;;1.50;79.40;;;;;;4179368;28;20040;-83
2022/12/08 09:48:16;;;;;;;0.98;0.68;;;1.50;79.40;;;;;;4178553;28;20056;-83
2022/12/08 09:50:45;;;;;;;2.33;0.80;;;1.60;79.40;;;;;;4171709;28;20044;-84
2022/12/08 09:53:11;;;;;;;2.38;0.90;;;1.60;79.30;;;;;;4178365;28;20034;-83
2022/12/08 09:55:50;;;;;;;0.93;0.63;;;1.70;79.30;;;;;;4178288;28;20849;-83
2022/12/08 09:58:57;;;;;;;2.13;0.50;;;1.70;79.30;;;;;;4178400;28;20092;-83
2022/12/08 10:01:18;;;;;;;2.53;0.60;;;1.70;79.20;;;;;;4177851;28;20086;-83
2022/12/08 10:03:38;;;;;;;2.22;0.50;;;1.80;79.20;;;;;;4175326;28;20597;-84
2022/12/08 10:06:18;;;;;;;1.20;0.70;;;1.80;79.10;;;;;;4173238;28;20079;-84
2022/12/08 10:08:55;;;;;;;2.22;1.00;;;1.80;79.10;;;;;;4178453;28;20087;-84
2022/12/08 10:11:39;;;;;;;1.75;0.80;;;1.80;79.00;;;;;;4182036;28;20131;-84
2022/12/08 10:14:29;;;;;;;2.42;1.10;;;1.90;79.10;;;;;;4175035;28;20063;-84
2022/12/08 10:16:53;;;;;;;2.97;1.35;;;1.90;79.00;;;;;;4173376;28;20132;-84
2022/12/08 10:19:17;;;;;;;2.55;1.15;;;1.90;79.00;;;;;;4175405;28;20066;-84
2022/12/08 10:21:39;;;;;;;4.07;1.20;;;1.90;78.90;;;;;;4178708;28;20047;-83
2022/12/08 10:24:09;;;;;;;4.00;1.10;;;2.00;78.90;;;;;;4176406;28;20320;-84
2022/12/08 10:26:31;;;;;;;4.25;1.20;;;2.00;78.90;;;;;;4172705;28;20098;-84
2022/12/08 10:28:47;;;;;;;2.70;1.10;;;2.00;78.80;;;;;;4178179;28;20067;-84
2022/12/08 10:31:18;;;;;;;3.25;1.90;;;2.00;78.80;;;;;;4174925;28;20056;-84
2022/12/08 10:33:37;;;;;;;3.50;1.67;;;2.00;78.70;;;;;;4175018;28;20122;-83
2022/12/08 10:35:58;;;;;;;3.97;2.15;;;2.10;78.80;;;;;;4173322;28;20538;-84
2022/12/08 10:38:21;;;;;;;4.18;1.95;;;2.10;78.70;;;;;;4175455;28;20078;-84
2022/12/08 10:40:44;;;;;;;3.03;1.70;;;2.10;78.60;;;;;;4176734;28;20036;-84
2022/12/08 10:43:05;;;;;;;3.92;1.60;;;2.10;78.60;;;;;;4176209;28;20097;-84
2022/12/08 10:45:27;;;;;;;5.10;1.38;;;2.10;78.60;;;;;;4178701;28;20154;-85
2022/12/08 10:47:55;;;;;;;1.85;1.02;;;2.10;78.60;;;;;;4178750;28;20063;-84
2022/12/08 10:50:20;;;;;;;1.58;0.90;;;2.20;78.60;;;;;;4173649;28;20043;-84
2022/12/08 10:52:39;;;;;;;1.90;0.82;;;2.20;78.50;;;;;;4176720;28;20448;-84
2022/12/08 10:54:59;;;;;;;1.45;0.50;;;2.20;78.50;;;;;;4172894;28;20094;-84
2022/12/08 10:57:21;;;;;;;0.60;0.40;;;2.30;78.50;;;;;;4173933;28;20043;-84
2022/12/08 10:59:41;;;;;;;2.53;0.45;;;2.30;78.40;;;;;;4173986;28;20082;-84
2022/12/08 11:02:00;;;;;;;1.00;0.40;;;2.30;78.30;;;;;;4177433;28;20036;-84
2022/12/08 11:04:35;;;;;;;0.50;0.30;;;2.30;78.20;;;;;;4172539;28;20098;-84
2022/12/08 11:06:54;;;;;;;0.98;0.30;;;2.30;78.00;;;;;;4179860;28;20051;-85
2022/12/08 11:09:17;;;;;;;2.40;0.40;;;2.40;78.00;;;;;;4185095;28;20071;-84
2022/12/08 11:11:48;;;;;;;0.47;0.20;;;2.40;77.90;;;;;;4176134;28;20778;-85
2022/12/08 11:14:11;;;;;;;0.70;0.40;;;2.40;77.60;;;;;;4171590;28;20043;-85
2022/12/08 11:16:30;;;;;;;1.13;0.70;;;2.40;77.50;;;;;;4169799;28;20078;-85
2022/12/08 11:18:56;;;;;;;2.30;0.32;;;2.40;77.50;;;;;;4177098;28;20098;-85
2022/12/08 11:21:18;;;;;;;4.20;1.05;;;2.40;77.40;;;;;;4173802;28;20055;-85
2022/12/08 11:23:37;;;;;;;1.30;0.80;;;2.40;76.80;;;;;;4173582;28;20047;-85
2022/12/08 11:26:02;;;;;;;1.75;0.85;;;2.40;76.80;;;;;;4175314;28;20036;-84
2022/12/08 11:28:23;;;;;;;3.30;1.50;;;2.50;77.00;;;;;;4177461;28;20087;-84
2022/12/08 11:30:48;;;;;;;4.00;1.30;;;2.50;77.00;;;;;;4187993;28;20043;-84
2022/12/08 11:33:16;;;;;;;6.45;1.77;;;2.50;77.00;;;;;;4173859;28;20048;-84
2022/12/08 11:35:41;;;;;;;1.75;1.10;;;2.50;76.80;;;;;;4179185;28;20148;-84
2022/12/08 11:38:15;;;;;;;2.10;1.00;;;2.50;76.70;;;;;;4173460;28;20766;-84
2022/12/08 11:40:38;;;;;;;7.10;3.60;;;2.60;76.50;;;;;;4174042;28;20512;-84
2022/12/08 11:43:11;;;;;;;4.20;1.60;;;2.60;76.40;;;;;;4171258;28;20146;-85
2022/12/08 11:45:33;;;;;;;3.10;1.77;;;2.70;76.30;;;;;;4180814;28;20554;-85
2022/12/08 11:48:08;;;;;;;1.52;0.80;;;2.60;76.30;;;;;;4181494;28;20094;-85
2022/12/08 11:50:28;;;;;;;;;;;2.70;76.00;;;;;;4177369;28;20036;-84
2022/12/08 11:52:50;;;;;;;2.08;0.80;;;2.70;74.30;;;;;;4174023;28;19967;-85
2022/12/08 11:55:22;;;;;;;1.33;0.65;;;2.80;75.40;;;;;;4176360;28;20031;-85
2022/12/08 11:57:42;;;;;;;2.63;0.68;;;2.80;75.30;;;;;;4177991;28;20094;-84
2022/12/08 12:00:03;;;;;;;1.13;0.40;;;2.80;74.80;;;;;;4179247;28;20050;-85
2022/12/08 12:02:30;;;;;;;0.63;0.30;;;2.80;74.90;;;;;;4175721;28;20048;-85
2022/12/08 12:05:17;;;;;;;0.95;0.32;;;2.80;74.70;;;;;;4178901;28;20451;-84